sensor_id;sensor_type;location;lat;lon;timestamp;P1;durP1;ratioP1;P2;durP2;ratioP2
39448;SDS011;25151;45.566;9.382;2023-04-25T00:02:49;1.50;;;0.57;;
39448;SDS011;25151;45.566;9.382;2023-04-25T00:05:51;0.90;;;0.60;;
39448;SDS011;25151;45.566;9.382;2023-04-25T00:08:52;2.67;;;0.80;;
39448;SDS011;25151;45.566;9.382;2023-04-25T00:11:53;1.40;;;0.75;;
39448;SDS011;25151;45.566;9.382;2023-04-25T00:14:54;1.75;;;0.60;;
39448;SDS011;25151;45.566;9.382;2023-04-25T00:17:56;1.50;;;0.52;;
39448;SDS011;25151;45.566;9.382;2023-04-25T00:20:57;1.50;;;0.70;;
39448;SDS011;25151;45.566;9.382;2023-04-25T00:23:58;1.15;;;0.65;;
39448;SDS011;25151;45.566;9.382;2023-04-25T00:26:59;0.65;;;0.60;;
39448;SDS011;25151;45.566;9.382;2023-04-25T00:30:00;0.95;;;0.60;;
39448;SDS011;25151;45.566;9.382;2023-04-25T00:33:00;3.20;;;1.20;;
39448;SDS011;25151;45.566;9.382;2023-04-25T00:36:03;1.83;;;0.80;;
39448;SDS011;25151;45.566;9.382;2023-04-25T00:39:03;1.20;;;0.60;;
39448;SDS011;25151;45.566;9.382;2023-04-25T00:42:04;1.75;;;0.90;;
39448;SDS011;25151;45.566;9.382;2023-04-25T00:45:06;2.30;;;0.80;;
39448;SDS011;25151;45.566;9.382;2023-04-25T00:48:07;0.70;;;0.60;;
39448;SDS011;25151;45.566;9.382;2023-04-25T00:51:08;2.20;;;0.90;;
39448;SDS011;25151;45.566;9.382;2023-04-25T00:54:13;1.13;;;0.65;;
39448;SDS011;25151;45.566;9.382;2023-04-25T00:57:14;0.93;;;0.73;;
39448;SDS011;25151;45.566;9.382;2023-04-25T01:00:15;3.28;;;0.80;;
39448;SDS011;25151;45.566;9.382;2023-04-25T01:03:16;1.27;;;0.60;;
39448;SDS011;25151;45.566;9.382;2023-04-25T01:06:19;0.80;;;0.68;;
39448;SDS011;25151;45.566;9.382;2023-04-25T01:09:20;1.77;;;0.85;;
39448;SDS011;25151;45.566;9.382;2023-04-25T01:12:22;0.98;;;0.50;;
39448;SDS011;25151;45.566;9.382;2023-04-25T01:15:23;2.85;;;1.48;;
39448;SDS011;25151;45.566;9.382;2023-04-25T01:18:24;1.45;;;0.85;;
39448;SDS011;25151;45.566;9.382;2023-04-25T01:21:25;1.73;;;0.85;;
39448;SDS011;25151;45.566;9.382;2023-04-25T01:24:27;1.27;;;0.70;;
39448;SDS011;25151;45.566;9.382;2023-04-25T01:27:28;2.67;;;0.60;;
39448;SDS011;25151;45.566;9.382;2023-04-25T01:30:29;1.48;;;0.63;;
39448;SDS011;25151;45.566;9.382;2023-04-25T01:33:30;0.47;;;0.47;;
39448;SDS011;25151;45.566;9.382;2023-04-25T01:36:31;1.48;;;0.60;;
39448;SDS011;25151;45.566;9.382;2023-04-25T01:39:32;2.20;;;0.60;;
39448;SDS011;25151;45.566;9.382;2023-04-25T01:42:33;1.55;;;0.57;;
39448;SDS011;25151;45.566;9.382;2023-04-25T01:45:36;0.88;;;0.77;;
39448;SDS011;25151;45.566;9.382;2023-04-25T01:48:41;1.38;;;0.63;;
39448;SDS011;25151;45.566;9.382;2023-04-25T01:51:41;0.80;;;0.57;;
39448;SDS011;25151;45.566;9.382;2023-04-25T01:54:42;5.85;;;0.70;;
39448;SDS011;25151;45.566;9.382;2023-04-25T01:57:44;1.38;;;0.63;;
39448;SDS011;25151;45.566;9.382;2023-04-25T02:00:45;1.42;;;0.73;;
39448;SDS011;25151;45.566;9.382;2023-04-25T02:03:46;1.55;;;0.65;;
39448;SDS011;25151;45.566;9.382;2023-04-25T02:06:47;1.73;;;0.80;;
39448;SDS011;25151;45.566;9.382;2023-04-25T02:09:47;1.00;;;0.70;;
39448;SDS011;25151;45.566;9.382;2023-04-25T02:12:48;2.25;;;0.80;;
39448;SDS011;25151;45.566;9.382;2023-04-25T02:15:49;1.48;;;0.73;;
39448;SDS011;25151;45.566;9.382;2023-04-25T02:18:49;2.97;;;0.60;;
39448;SDS011;25151;45.566;9.382;2023-04-25T02:21:52;1.88;;;0.52;;
39448;SDS011;25151;45.566;9.382;2023-04-25T02:24:53;1.00;;;0.77;;
39448;SDS011;25151;45.566;9.382;2023-04-25T02:27:54;2.05;;;0.70;;
39448;SDS011;25151;45.566;9.382;2023-04-25T02:30:54;1.05;;;0.60;;
39448;SDS011;25151;45.566;9.382;2023-04-25T02:33:55;1.27;;;0.50;;
39448;SDS011;25151;45.566;9.382;2023-04-25T02:36:56;1.25;;;0.70;;
39448;SDS011;25151;45.566;9.382;2023-04-25T02:39:56;1.80;;;1.33;;
39448;SDS011;25151;45.566;9.382;2023-04-25T02:42:57;0.43;;;0.43;;
39448;SDS011;25151;45.566;9.382;2023-04-25T02:45:57;2.40;;;0.50;;
39448;SDS011;25151;45.566;9.382;2023-04-25T02:48:58;1.83;;;0.52;;
39448;SDS011;25151;45.566;9.382;2023-04-25T02:51:58;1.65;;;0.65;;
39448;SDS011;25151;45.566;9.382;2023-04-25T02:54:59;0.82;;;0.45;;
39448;SDS011;25151;45.566;9.382;2023-04-25T02:58:00;0.68;;;0.60;;
39448;SDS011;25151;45.566;9.382;2023-04-25T03:01:00;1.33;;;0.63;;
39448;SDS011;25151;45.566;9.382;2023-04-25T03:04:01;3.25;;;0.60;;
39448;SDS011;25151;45.566;9.382;2023-04-25T03:07:01;1.05;;;0.80;;
39448;SDS011;25151;45.566;9.382;2023-04-25T03:10:02;1.55;;;0.57;;
39448;SDS011;25151;45.566;9.382;2023-04-25T03:13:03;1.55;;;0.80;;
39448;SDS011;25151;45.566;9.382;2023-04-25T03:16:05;1.30;;;0.80;;
39448;SDS011;25151;45.566;9.382;2023-04-25T03:19:06;1.45;;;0.60;;
39448;SDS011;25151;45.566;9.382;2023-04-25T03:22:06;0.40;;;0.40;;
39448;SDS011;25151;45.566;9.382;2023-04-25T03:25:07;1.13;;;0.88;;
39448;SDS011;25151;45.566;9.382;2023-04-25T03:28:08;1.17;;;0.60;;
39448;SDS011;25151;45.566;9.382;2023-04-25T03:31:09;0.80;;;0.60;;
39448;SDS011;25151;45.566;9.382;2023-04-25T03:34:09;0.70;;;0.38;;
39448;SDS011;25151;45.566;9.382;2023-04-25T03:37:10;1.60;;;0.70;;
39448;SDS011;25151;45.566;9.382;2023-04-25T03:40:11;0.98;;;0.50;;
39448;SDS011;25151;45.566;9.382;2023-04-25T03:43:11;0.98;;;0.60;;
39448;SDS011;25151;45.566;9.382;2023-04-25T03:46:12;1.55;;;0.75;;
39448;SDS011;25151;45.566;9.382;2023-04-25T03:49:13;1.23;;;0.73;;
39448;SDS011;25151;45.566;9.382;2023-04-25T03:52:13;0.57;;;0.50;;
39448;SDS011;25151;45.566;9.382;2023-04-25T03:55:14;0.95;;;0.70;;
39448;SDS011;25151;45.566;9.382;2023-04-25T03:58:15;1.75;;;0.70;;
39448;SDS011;25151;45.566;9.382;2023-04-25T04:01:15;1.90;;;0.70;;
39448;SDS011;25151;45.566;9.382;2023-04-25T04:04:16;1.75;;;0.63;;
39448;SDS011;25151;45.566;9.382;2023-04-25T04:07:17;2.05;;;0.95;;
39448;SDS011;25151;45.566;9.382;2023-04-25T04:10:17;1.00;;;0.70;;
39448;SDS011;25151;45.566;9.382;2023-04-25T04:13:18;0.63;;;0.60;;
39448;SDS011;25151;45.566;9.382;2023-04-25T04:16:19;1.23;;;0.60;;
39448;SDS011;25151;45.566;9.382;2023-04-25T04:19:19;1.45;;;0.80;;
39448;SDS011;25151;45.566;9.382;2023-04-25T04:22:20;1.15;;;0.65;;
39448;SDS011;25151;45.566;9.382;2023-04-25T04:25:21;0.55;;;0.45;;
39448;SDS011;25151;45.566;9.382;2023-04-25T04:28:21;0.70;;;0.60;;
39448;SDS011;25151;45.566;9.382;2023-04-25T04:31:22;0.60;;;0.50;;
39448;SDS011;25151;45.566;9.382;2023-04-25T04:34:22;0.88;;;0.50;;
39448;SDS011;25151;45.566;9.382;2023-04-25T04:37:24;0.60;;;0.50;;
39448;SDS011;25151;45.566;9.382;2023-04-25T04:40:25;1.20;;;0.65;;
39448;SDS011;25151;45.566;9.382;2023-04-25T04:43:26;1.50;;;0.52;;
39448;SDS011;25151;45.566;9.382;2023-04-25T04:46:26;0.88;;;0.50;;
39448;SDS011;25151;45.566;9.382;2023-04-25T04:49:28;1.48;;;0.60;;
39448;SDS011;25151;45.566;9.382;2023-04-25T04:52:28;0.73;;;0.70;;
39448;SDS011;25151;45.566;9.382;2023-04-25T04:55:29;0.93;;;0.60;;
39448;SDS011;25151;45.566;9.382;2023-04-25T04:58:29;3.45;;;0.65;;
39448;SDS011;25151;45.566;9.382;2023-04-25T05:01:30;0.50;;;0.43;;
39448;SDS011;25151;45.566;9.382;2023-04-25T05:04:31;0.50;;;0.50;;
39448;SDS011;25151;45.566;9.382;2023-04-25T05:07:32;0.65;;;0.60;;
39448;SDS011;25151;45.566;9.382;2023-04-25T05:10:32;1.10;;;0.70;;
39448;SDS011;25151;45.566;9.382;2023-04-25T05:13:33;1.00;;;0.77;;
39448;SDS011;25151;45.566;9.382;2023-04-25T05:16:34;2.20;;;0.55;;
39448;SDS011;25151;45.566;9.382;2023-04-25T05:19:35;2.47;;;0.68;;
39448;SDS011;25151;45.566;9.382;2023-04-25T05:22:35;1.70;;;0.65;;
39448;SDS011;25151;45.566;9.382;2023-04-25T05:25:37;2.83;;;1.00;;
39448;SDS011;25151;45.566;9.382;2023-04-25T05:28:37;3.47;;;0.70;;
39448;SDS011;25151;45.566;9.382;2023-04-25T05:31:38;2.05;;;1.50;;
39448;SDS011;25151;45.566;9.382;2023-04-25T05:34:38;1.33;;;0.52;;
39448;SDS011;25151;45.566;9.382;2023-04-25T05:37:39;1.27;;;0.60;;
39448;SDS011;25151;45.566;9.382;2023-04-25T05:40:40;0.80;;;0.60;;
39448;SDS011;25151;45.566;9.382;2023-04-25T05:43:40;4.07;;;0.70;;
39448;SDS011;25151;45.566;9.382;2023-04-25T05:46:45;2.60;;;0.70;;
39448;SDS011;25151;45.566;9.382;2023-04-25T05:49:45;1.55;;;0.77;;
39448;SDS011;25151;45.566;9.382;2023-04-25T05:52:46;2.05;;;0.57;;
39448;SDS011;25151;45.566;9.382;2023-04-25T05:55:47;2.42;;;0.60;;
39448;SDS011;25151;45.566;9.382;2023-04-25T05:58:47;3.33;;;0.98;;
39448;SDS011;25151;45.566;9.382;2023-04-25T06:01:48;1.35;;;0.60;;
39448;SDS011;25151;45.566;9.382;2023-04-25T06:04:52;2.63;;;0.60;;
39448;SDS011;25151;45.566;9.382;2023-04-25T06:07:53;0.88;;;0.57;;
39448;SDS011;25151;45.566;9.382;2023-04-25T06:10:53;0.57;;;0.57;;
39448;SDS011;25151;45.566;9.382;2023-04-25T06:13:54;2.28;;;0.40;;
39448;SDS011;25151;45.566;9.382;2023-04-25T06:16:55;2.38;;;0.95;;
39448;SDS011;25151;45.566;9.382;2023-04-25T06:19:55;1.40;;;0.68;;
39448;SDS011;25151;45.566;9.382;2023-04-25T06:22:56;1.05;;;0.68;;
39448;SDS011;25151;45.566;9.382;2023-04-25T06:25:57;3.03;;;0.82;;
39448;SDS011;25151;45.566;9.382;2023-04-25T06:28:57;3.00;;;1.38;;
39448;SDS011;25151;45.566;9.382;2023-04-25T06:31:58;1.67;;;0.90;;
39448;SDS011;25151;45.566;9.382;2023-04-25T06:34:58;4.25;;;0.90;;
39448;SDS011;25151;45.566;9.382;2023-04-25T06:37:59;2.33;;;0.80;;
39448;SDS011;25151;45.566;9.382;2023-04-25T06:41:01;2.95;;;0.70;;
39448;SDS011;25151;45.566;9.382;2023-04-25T06:44:02;1.58;;;0.70;;
39448;SDS011;25151;45.566;9.382;2023-04-25T06:47:03;4.95;;;0.80;;
39448;SDS011;25151;45.566;9.382;2023-04-25T06:50:05;4.93;;;1.13;;
39448;SDS011;25151;45.566;9.382;2023-04-25T06:53:07;2.28;;;0.80;;
39448;SDS011;25151;45.566;9.382;2023-04-25T06:56:08;3.83;;;1.02;;
39448;SDS011;25151;45.566;9.382;2023-04-25T06:59:10;1.83;;;0.70;;
39448;SDS011;25151;45.566;9.382;2023-04-25T07:02:11;1.77;;;0.75;;
39448;SDS011;25151;45.566;9.382;2023-04-25T07:05:11;3.70;;;0.77;;
39448;SDS011;25151;45.566;9.382;2023-04-25T07:08:14;3.42;;;0.95;;
39448;SDS011;25151;45.566;9.382;2023-04-25T07:11:14;2.70;;;0.68;;
39448;SDS011;25151;45.566;9.382;2023-04-25T07:14:27;4.82;;;0.80;;
39448;SDS011;25151;45.566;9.382;2023-04-25T07:17:30;2.47;;;0.77;;
39448;SDS011;25151;45.566;9.382;2023-04-25T07:20:31;4.57;;;1.10;;
39448;SDS011;25151;45.566;9.382;2023-04-25T07:23:33;4.30;;;1.00;;
39448;SDS011;25151;45.566;9.382;2023-04-25T07:26:33;3.60;;;0.70;;
39448;SDS011;25151;45.566;9.382;2023-04-25T07:29:34;3.42;;;0.82;;
39448;SDS011;25151;45.566;9.382;2023-04-25T07:32:37;8.73;;;1.17;;
39448;SDS011;25151;45.566;9.382;2023-04-25T07:35:38;6.55;;;1.60;;
39448;SDS011;25151;45.566;9.382;2023-04-25T07:38:39;6.57;;;1.13;;
39448;SDS011;25151;45.566;9.382;2023-04-25T07:41:39;4.60;;;1.55;;
39448;SDS011;25151;45.566;9.382;2023-04-25T07:44:40;5.10;;;0.93;;
39448;SDS011;25151;45.566;9.382;2023-04-25T07:47:42;6.72;;;1.08;;
39448;SDS011;25151;45.566;9.382;2023-04-25T07:50:43;4.20;;;0.95;;
39448;SDS011;25151;45.566;9.382;2023-04-25T07:53:43;4.63;;;0.80;;
39448;SDS011;25151;45.566;9.382;2023-04-25T07:56:44;7.85;;;1.33;;
39448;SDS011;25151;45.566;9.382;2023-04-25T07:59:45;10.60;;;1.15;;
39448;SDS011;25151;45.566;9.382;2023-04-25T08:02:45;6.30;;;1.00;;
39448;SDS011;25151;45.566;9.382;2023-04-25T08:05:46;3.80;;;0.77;;
39448;SDS011;25151;45.566;9.382;2023-04-25T08:08:47;6.80;;;1.70;;
39448;SDS011;25151;45.566;9.382;2023-04-25T08:11:47;2.50;;;0.90;;
39448;SDS011;25151;45.566;9.382;2023-04-25T08:14:48;4.70;;;0.80;;
39448;SDS011;25151;45.566;9.382;2023-04-25T08:17:49;3.10;;;1.02;;
39448;SDS011;25151;45.566;9.382;2023-04-25T08:20:49;6.15;;;1.02;;
39448;SDS011;25151;45.566;9.382;2023-04-25T08:23:50;4.82;;;1.00;;
39448;SDS011;25151;45.566;9.382;2023-04-25T08:26:51;6.18;;;1.02;;
39448;SDS011;25151;45.566;9.382;2023-04-25T08:29:53;5.05;;;1.35;;
39448;SDS011;25151;45.566;9.382;2023-04-25T08:32:55;3.80;;;0.93;;
39448;SDS011;25151;45.566;9.382;2023-04-25T08:35:56;7.57;;;0.93;;
39448;SDS011;25151;45.566;9.382;2023-04-25T08:38:57;4.00;;;0.85;;
39448;SDS011;25151;45.566;9.382;2023-04-25T08:41:58;6.50;;;1.10;;
39448;SDS011;25151;45.566;9.382;2023-04-25T08:45:01;5.95;;;0.93;;
39448;SDS011;25151;45.566;9.382;2023-04-25T08:48:03;6.57;;;1.02;;
39448;SDS011;25151;45.566;9.382;2023-04-25T08:51:06;3.50;;;0.90;;
39448;SDS011;25151;45.566;9.382;2023-04-25T08:54:11;3.05;;;0.73;;
39448;SDS011;25151;45.566;9.382;2023-04-25T08:57:13;4.40;;;0.95;;
39448;SDS011;25151;45.566;9.382;2023-04-25T09:00:15;2.38;;;1.00;;
39448;SDS011;25151;45.566;9.382;2023-04-25T09:03:17;4.70;;;0.80;;
39448;SDS011;25151;45.566;9.382;2023-04-25T09:06:18;2.38;;;1.05;;
39448;SDS011;25151;45.566;9.382;2023-04-25T09:09:19;2.75;;;0.80;;
39448;SDS011;25151;45.566;9.382;2023-04-25T09:12:20;4.22;;;1.48;;
39448;SDS011;25151;45.566;9.382;2023-04-25T09:15:22;1.52;;;0.70;;
39448;SDS011;25151;45.566;9.382;2023-04-25T09:18:27;8.30;;;3.55;;
39448;SDS011;25151;45.566;9.382;2023-04-25T09:21:29;4.65;;;1.45;;
39448;SDS011;25151;45.566;9.382;2023-04-25T09:24:43;2.28;;;1.27;;
39448;SDS011;25151;45.566;9.382;2023-04-25T09:27:51;4.93;;;2.50;;
39448;SDS011;25151;45.566;9.382;2023-04-25T09:30:56;7.32;;;3.90;;
39448;SDS011;25151;45.566;9.382;2023-04-25T09:34:00;11.18;;;4.47;;
39448;SDS011;25151;45.566;9.382;2023-04-25T09:37:01;13.98;;;4.68;;
39448;SDS011;25151;45.566;9.382;2023-04-25T09:40:04;6.45;;;3.20;;
39448;SDS011;25151;45.566;9.382;2023-04-25T09:43:09;12.13;;;4.47;;
39448;SDS011;25151;45.566;9.382;2023-04-25T09:46:18;8.35;;;4.38;;
39448;SDS011;25151;45.566;9.382;2023-04-25T09:49:21;15.13;;;4.53;;
39448;SDS011;25151;45.566;9.382;2023-04-25T09:52:23;11.40;;;4.82;;
39448;SDS011;25151;45.566;9.382;2023-04-25T09:55:24;11.20;;;4.80;;
39448;SDS011;25151;45.566;9.382;2023-04-25T09:58:28;10.50;;;4.68;;
39448;SDS011;25151;45.566;9.382;2023-04-25T10:01:30;11.90;;;5.03;;
39448;SDS011;25151;45.566;9.382;2023-04-25T10:04:31;12.65;;;5.93;;
39448;SDS011;25151;45.566;9.382;2023-04-25T10:07:37;11.88;;;4.80;;
39448;SDS011;25151;45.566;9.382;2023-04-25T10:10:39;9.25;;;4.70;;
39448;SDS011;25151;45.566;9.382;2023-04-25T10:13:40;10.55;;;4.60;;
39448;SDS011;25151;45.566;9.382;2023-04-25T10:16:42;11.15;;;4.50;;
39448;SDS011;25151;45.566;9.382;2023-04-25T10:19:43;9.13;;;4.63;;
39448;SDS011;25151;45.566;9.382;2023-04-25T10:22:45;12.70;;;4.55;;
39448;SDS011;25151;45.566;9.382;2023-04-25T10:25:49;9.73;;;4.32;;
39448;SDS011;25151;45.566;9.382;2023-04-25T10:28:58;11.95;;;4.22;;
39448;SDS011;25151;45.566;9.382;2023-04-25T10:32:01;9.65;;;3.60;;
39448;SDS011;25151;45.566;9.382;2023-04-25T10:35:18;9.75;;;4.35;;
39448;SDS011;25151;45.566;9.382;2023-04-25T10:38:24;10.23;;;3.92;;
39448;SDS011;25151;45.566;9.382;2023-04-25T10:41:26;8.77;;;4.00;;
39448;SDS011;25151;45.566;9.382;2023-04-25T10:44:29;11.55;;;3.60;;
39448;SDS011;25151;45.566;9.382;2023-04-25T10:47:34;8.52;;;4.15;;
39448;SDS011;25151;45.566;9.382;2023-04-25T10:50:39;11.00;;;3.58;;
39448;SDS011;25151;45.566;9.382;2023-04-25T10:53:39;9.40;;;3.50;;
39448;SDS011;25151;45.566;9.382;2023-04-25T10:56:41;8.10;;;3.20;;
39448;SDS011;25151;45.566;9.382;2023-04-25T10:59:44;11.57;;;3.60;;
39448;SDS011;25151;45.566;9.382;2023-04-25T11:02:52;9.68;;;3.17;;
39448;SDS011;25151;45.566;9.382;2023-04-25T11:05:57;8.77;;;3.53;;
39448;SDS011;25151;45.566;9.382;2023-04-25T11:09:00;9.73;;;3.60;;
39448;SDS011;25151;45.566;9.382;2023-04-25T11:12:02;10.20;;;3.58;;
39448;SDS011;25151;45.566;9.382;2023-04-25T11:15:03;7.80;;;2.80;;
39448;SDS011;25151;45.566;9.382;2023-04-25T11:18:06;11.35;;;3.08;;
39448;SDS011;25151;45.566;9.382;2023-04-25T11:21:06;8.30;;;3.20;;
39448;SDS011;25151;45.566;9.382;2023-04-25T11:24:07;9.93;;;3.42;;
39448;SDS011;25151;45.566;9.382;2023-04-25T11:27:10;8.80;;;2.88;;
39448;SDS011;25151;45.566;9.382;2023-04-25T11:30:11;9.15;;;3.00;;
39448;SDS011;25151;45.566;9.382;2023-04-25T11:33:16;9.50;;;2.97;;
39448;SDS011;25151;45.566;9.382;2023-04-25T11:36:18;5.38;;;2.38;;
39448;SDS011;25151;45.566;9.382;2023-04-25T11:39:19;8.27;;;2.40;;
39448;SDS011;25151;45.566;9.382;2023-04-25T11:42:20;6.68;;;2.67;;
39448;SDS011;25151;45.566;9.382;2023-04-25T11:45:20;6.40;;;2.15;;
39448;SDS011;25151;45.566;9.382;2023-04-25T11:48:24;7.28;;;3.15;;
39448;SDS011;25151;45.566;9.382;2023-04-25T11:51:24;7.13;;;2.72;;
39448;SDS011;25151;45.566;9.382;2023-04-25T11:54:26;6.53;;;3.20;;
39448;SDS011;25151;45.566;9.382;2023-04-25T11:57:27;6.10;;;2.55;;
39448;SDS011;25151;45.566;9.382;2023-04-25T12:00:27;6.90;;;2.97;;
39448;SDS011;25151;45.566;9.382;2023-04-25T12:03:29;9.38;;;2.60;;
39448;SDS011;25151;45.566;9.382;2023-04-25T12:06:33;6.88;;;2.55;;
39448;SDS011;25151;45.566;9.382;2023-04-25T12:09:38;7.20;;;2.55;;
39448;SDS011;25151;45.566;9.382;2023-04-25T12:12:44;5.05;;;2.42;;
39448;SDS011;25151;45.566;9.382;2023-04-25T12:15:46;7.78;;;2.78;;
39448;SDS011;25151;45.566;9.382;2023-04-25T12:18:47;5.65;;;2.78;;
39448;SDS011;25151;45.566;9.382;2023-04-25T12:21:48;6.75;;;2.35;;
39448;SDS011;25151;45.566;9.382;2023-04-25T12:24:50;7.00;;;2.88;;
39448;SDS011;25151;45.566;9.382;2023-04-25T12:27:54;11.27;;;3.00;;
39448;SDS011;25151;45.566;9.382;2023-04-25T12:31:01;8.57;;;2.28;;
39448;SDS011;25151;45.566;9.382;2023-04-25T12:40:07;6.27;;;2.27;;
39448;SDS011;25151;45.566;9.382;2023-04-25T12:43:08;9.65;;;2.60;;
39448;SDS011;25151;45.566;9.382;2023-04-25T12:46:09;6.75;;;2.45;;
39448;SDS011;25151;45.566;9.382;2023-04-25T12:49:10;6.75;;;2.42;;
39448;SDS011;25151;45.566;9.382;2023-04-25T12:52:10;4.32;;;1.95;;
39448;SDS011;25151;45.566;9.382;2023-04-25T12:55:11;5.22;;;2.28;;
39448;SDS011;25151;45.566;9.382;2023-04-25T12:58:12;7.63;;;2.38;;
39448;SDS011;25151;45.566;9.382;2023-04-25T13:01:15;7.82;;;2.40;;
39448;SDS011;25151;45.566;9.382;2023-04-25T13:04:16;6.65;;;2.42;;
39448;SDS011;25151;45.566;9.382;2023-04-25T13:07:17;4.97;;;2.08;;
39448;SDS011;25151;45.566;9.382;2023-04-25T13:10:18;4.75;;;2.10;;
39448;SDS011;25151;45.566;9.382;2023-04-25T13:13:18;5.28;;;1.85;;
39448;SDS011;25151;45.566;9.382;2023-04-25T13:16:20;3.72;;;2.00;;
39448;SDS011;25151;45.566;9.382;2023-04-25T13:19:21;7.78;;;2.42;;
39448;SDS011;25151;45.566;9.382;2023-04-25T13:22:22;5.65;;;2.25;;
39448;SDS011;25151;45.566;9.382;2023-04-25T13:25:22;8.48;;;2.53;;
39448;SDS011;25151;45.566;9.382;2023-04-25T13:28:23;5.15;;;1.98;;
39448;SDS011;25151;45.566;9.382;2023-04-25T13:31:25;6.65;;;2.22;;
39448;SDS011;25151;45.566;9.382;2023-04-25T13:34:26;6.68;;;2.28;;
39448;SDS011;25151;45.566;9.382;2023-04-25T13:37:26;6.60;;;2.10;;
39448;SDS011;25151;45.566;9.382;2023-04-25T13:40:27;4.40;;;1.90;;
39448;SDS011;25151;45.566;9.382;2023-04-25T13:43:28;4.82;;;2.00;;
39448;SDS011;25151;45.566;9.382;2023-04-25T13:46:29;4.95;;;2.03;;
39448;SDS011;25151;45.566;9.382;2023-04-25T13:49:29;6.53;;;2.20;;
39448;SDS011;25151;45.566;9.382;2023-04-25T13:52:30;5.80;;;2.47;;
39448;SDS011;25151;45.566;9.382;2023-04-25T13:55:30;8.07;;;2.45;;
39448;SDS011;25151;45.566;9.382;2023-04-25T13:58:31;6.15;;;2.13;;
39448;SDS011;25151;45.566;9.382;2023-04-25T14:01:33;3.92;;;1.73;;
39448;SDS011;25151;45.566;9.382;2023-04-25T14:04:35;6.75;;;1.85;;
39448;SDS011;25151;45.566;9.382;2023-04-25T14:07:36;4.57;;;2.17;;
39448;SDS011;25151;45.566;9.382;2023-04-25T14:10:36;4.55;;;1.90;;
39448;SDS011;25151;45.566;9.382;2023-04-25T14:13:37;4.78;;;1.90;;
39448;SDS011;25151;45.566;9.382;2023-04-25T14:16:38;7.47;;;1.70;;
39448;SDS011;25151;45.566;9.382;2023-04-25T14:19:39;4.32;;;1.70;;
39448;SDS011;25151;45.566;9.382;2023-04-25T14:22:43;5.47;;;2.50;;
39448;SDS011;25151;45.566;9.382;2023-04-25T14:25:43;5.63;;;1.77;;
39448;SDS011;25151;45.566;9.382;2023-04-25T14:28:46;4.85;;;1.77;;
39448;SDS011;25151;45.566;9.382;2023-04-25T14:31:46;4.93;;;2.00;;
39448;SDS011;25151;45.566;9.382;2023-04-25T14:34:47;6.47;;;1.77;;
39448;SDS011;25151;45.566;9.382;2023-04-25T14:37:48;4.05;;;1.90;;
39448;SDS011;25151;45.566;9.382;2023-04-25T14:40:49;4.53;;;2.15;;
39448;SDS011;25151;45.566;9.382;2023-04-25T14:43:50;4.93;;;2.00;;
39448;SDS011;25151;45.566;9.382;2023-04-25T14:46:50;4.43;;;1.80;;
39448;SDS011;25151;45.566;9.382;2023-04-25T14:49:51;8.35;;;2.45;;
39448;SDS011;25151;45.566;9.382;2023-04-25T14:52:54;3.50;;;1.35;;
39448;SDS011;25151;45.566;9.382;2023-04-25T14:55:58;3.22;;;1.70;;
39448;SDS011;25151;45.566;9.382;2023-04-25T14:58:59;4.35;;;2.03;;
39448;SDS011;25151;45.566;9.382;2023-04-25T15:02:00;3.67;;;1.63;;
39448;SDS011;25151;45.566;9.382;2023-04-25T15:05:01;5.82;;;1.55;;
39448;SDS011;25151;45.566;9.382;2023-04-25T15:08:02;5.00;;;1.90;;
39448;SDS011;25151;45.566;9.382;2023-04-25T15:11:02;5.97;;;2.28;;
39448;SDS011;25151;45.566;9.382;2023-04-25T15:14:03;5.40;;;2.33;;
39448;SDS011;25151;45.566;9.382;2023-04-25T15:17:03;5.88;;;1.90;;
39448;SDS011;25151;45.566;9.382;2023-04-25T15:20:07;5.80;;;2.13;;
39448;SDS011;25151;45.566;9.382;2023-04-25T15:23:16;4.80;;;1.75;;
39448;SDS011;25151;45.566;9.382;2023-04-25T15:26:18;5.63;;;2.08;;
39448;SDS011;25151;45.566;9.382;2023-04-25T15:29:18;4.55;;;1.80;;
39448;SDS011;25151;45.566;9.382;2023-04-25T15:32:19;3.10;;;1.70;;
39448;SDS011;25151;45.566;9.382;2023-04-25T15:35:20;3.55;;;1.90;;
39448;SDS011;25151;45.566;9.382;2023-04-25T15:38:21;3.92;;;1.52;;
39448;SDS011;25151;45.566;9.382;2023-04-25T15:41:21;3.50;;;1.60;;
39448;SDS011;25151;45.566;9.382;2023-04-25T15:44:23;3.63;;;1.58;;
39448;SDS011;25151;45.566;9.382;2023-04-25T15:47:24;2.83;;;1.80;;
39448;SDS011;25151;45.566;9.382;2023-04-25T15:50:25;4.45;;;1.70;;
39448;SDS011;25151;45.566;9.382;2023-04-25T15:53:26;4.30;;;1.77;;
39448;SDS011;25151;45.566;9.382;2023-04-25T15:56:26;5.45;;;2.17;;
39448;SDS011;25151;45.566;9.382;2023-04-25T15:59:27;3.58;;;1.85;;
39448;SDS011;25151;45.566;9.382;2023-04-25T16:02:28;2.67;;;1.55;;
39448;SDS011;25151;45.566;9.382;2023-04-25T16:05:29;3.53;;;1.77;;
39448;SDS011;25151;45.566;9.382;2023-04-25T16:08:30;4.53;;;1.80;;
39448;SDS011;25151;45.566;9.382;2023-04-25T16:11:33;3.58;;;1.67;;
39448;SDS011;25151;45.566;9.382;2023-04-25T16:14:33;3.60;;;2.13;;
39448;SDS011;25151;45.566;9.382;2023-04-25T16:17:34;1.88;;;1.50;;
39448;SDS011;25151;45.566;9.382;2023-04-25T16:20:35;4.97;;;1.33;;
39448;SDS011;25151;45.566;9.382;2023-04-25T16:23:35;3.40;;;1.45;;
39448;SDS011;25151;45.566;9.382;2023-04-25T16:26:36;3.80;;;1.27;;
39448;SDS011;25151;45.566;9.382;2023-04-25T16:29:37;2.90;;;1.48;;
39448;SDS011;25151;45.566;9.382;2023-04-25T16:32:38;2.85;;;1.38;;
39448;SDS011;25151;45.566;9.382;2023-04-25T16:35:40;3.30;;;1.55;;
39448;SDS011;25151;45.566;9.382;2023-04-25T16:38:40;3.00;;;1.52;;
39448;SDS011;25151;45.566;9.382;2023-04-25T16:41:41;3.60;;;1.25;;
39448;SDS011;25151;45.566;9.382;2023-04-25T16:44:42;2.67;;;1.40;;
39448;SDS011;25151;45.566;9.382;2023-04-25T16:47:42;4.93;;;1.38;;
39448;SDS011;25151;45.566;9.382;2023-04-25T16:50:44;2.90;;;1.60;;
39448;SDS011;25151;45.566;9.382;2023-04-25T16:53:44;3.53;;;1.30;;
39448;SDS011;25151;45.566;9.382;2023-04-25T16:56:45;3.60;;;1.38;;
39448;SDS011;25151;45.566;9.382;2023-04-25T16:59:46;4.00;;;1.55;;
39448;SDS011;25151;45.566;9.382;2023-04-25T17:02:47;2.95;;;1.52;;
39448;SDS011;25151;45.566;9.382;2023-04-25T17:05:53;4.75;;;1.83;;
39448;SDS011;25151;45.566;9.382;2023-04-25T17:08:59;4.30;;;1.60;;
39448;SDS011;25151;45.566;9.382;2023-04-25T17:12:00;4.22;;;1.40;;
39448;SDS011;25151;45.566;9.382;2023-04-25T17:15:02;3.38;;;1.70;;
39448;SDS011;25151;45.566;9.382;2023-04-25T17:18:03;2.97;;;1.50;;
39448;SDS011;25151;45.566;9.382;2023-04-25T17:21:03;2.40;;;1.20;;
39448;SDS011;25151;45.566;9.382;2023-04-25T17:24:05;7.38;;;1.45;;
39448;SDS011;25151;45.566;9.382;2023-04-25T17:27:09;3.13;;;1.30;;
39448;SDS011;25151;45.566;9.382;2023-04-25T17:30:10;2.90;;;1.75;;
39448;SDS011;25151;45.566;9.382;2023-04-25T17:33:11;4.93;;;1.30;;
39448;SDS011;25151;45.566;9.382;2023-04-25T17:36:12;4.22;;;1.60;;
39448;SDS011;25151;45.566;9.382;2023-04-25T17:39:12;1.65;;;1.00;;
39448;SDS011;25151;45.566;9.382;2023-04-25T17:42:16;2.72;;;1.35;;
39448;SDS011;25151;45.566;9.382;2023-04-25T17:45:17;3.00;;;1.55;;
39448;SDS011;25151;45.566;9.382;2023-04-25T17:48:17;6.03;;;1.45;;
39448;SDS011;25151;45.566;9.382;2023-04-25T17:51:18;3.45;;;1.27;;
39448;SDS011;25151;45.566;9.382;2023-04-25T17:54:19;3.15;;;1.48;;
39448;SDS011;25151;45.566;9.382;2023-04-25T17:57:21;4.25;;;1.38;;
39448;SDS011;25151;45.566;9.382;2023-04-25T18:00:24;3.45;;;1.67;;
39448;SDS011;25151;45.566;9.382;2023-04-25T18:03:25;3.25;;;1.42;;
39448;SDS011;25151;45.566;9.382;2023-04-25T18:06:26;5.93;;;1.30;;
39448;SDS011;25151;45.566;9.382;2023-04-25T18:09:27;3.35;;;1.10;;
39448;SDS011;25151;45.566;9.382;2023-04-25T18:12:29;3.60;;;1.10;;
39448;SDS011;25151;45.566;9.382;2023-04-25T18:15:29;2.53;;;0.98;;
39448;SDS011;25151;45.566;9.382;2023-04-25T18:18:30;4.00;;;1.42;;
39448;SDS011;25151;45.566;9.382;2023-04-25T18:21:34;4.00;;;1.30;;